Accueil
METAR-TAF:

METAR-TAF

Aéroports :

Kwajalein, Îles Marshall

latitude: 08-43N, longitude: 167-44E, altitude: 3 m

Observation

Le bulletin a été fait il y a 23 minutes, à 13:20 UTC
Vent 11 kt de est/sud-est
Température 29°C
Humidité 74%
Pression 1011 hPa
Visibilité: 16.1 km
Nuages épars à une hauteur de 2100 ft
Nuages épars à une hauteur de 2800 ft

METAR: PKWA 211320Z AUTO 12011KT 10SM SCT021 SCT028 29/24 A2984 RMK AO2 T02850236

Heure: 01:43 (13:43 UTC)

Prévision

Le bulletin a été fait il y a 2 heures et 19 minutes, à 11:24 UTC
Prévision valable du 21 à 12 UTC au 22 à 12 UTC
Vent 10 kt de est
Visibilité: 10 km
Quelques nuages à une hauteur de 2400 ft

TAF: PKWA 211124Z 2112/2212 10010KT P6SM FEW024

Observations et prévisions météorologiques de plus de 4000 aéroports (messages METAR et TAF).

Les stations disponibles sont représentées par des disques jaunes et rouges sur la carte.

Passer la souris dessus pour voir le nom de la station.

Cliquer dessus pour voir les observations et prévisions météorologiques.

Pour changer de carte: cliquez sur les boutons verts avec une croix noire pour zoomer, sur le bouton vert avec un tiret pour effectuer un zoom arrière, ou sur les flèches vertes pour les cartes adjacentes.


METAR-TAF: